Time;durP1;ratioP1;P1;durP2;ratioP2;P2;SDS_P1;SDS_P2;PMS_P1;PMS_P2;Temp;Humidity;BMP_temperature;BMP_pressure;BME280_temperature;BME280_humidity;BME280_pressure;Samples;Min_cycle;Max_cycle;Signal;HPM_P1;HPM_P2
2023/12/18 00:01:58;;;;;;;;;;;19.80;46.60;;;;;;5095859;28;19927;-61
2023/12/18 00:04:25;;;;;;;;;;;19.80;46.70;;;;;;5099265;28;19956;-61
2023/12/18 00:06:53;;;;;;;;;;;19.80;46.60;;;;;;5092009;28;19946;-61
2023/12/18 00:09:20;;;;;;;;;;;19.80;46.60;;;;;;5109982;28;19923;-61
2023/12/18 00:11:47;;;;;;;;;;;19.80;46.60;;;;;;5097434;28;19927;-61
2023/12/18 00:14:13;;;;;;;;;;;19.80;46.60;;;;;;5101227;28;19924;-61
2023/12/18 00:16:40;;;;;;;;;;;19.80;46.60;;;;;;5103248;28;19927;-61
2023/12/18 00:19:07;;;;;;;;;;;19.80;46.70;;;;;;5099113;28;19928;-61
2023/12/18 00:21:34;;;;;;;;;;;19.80;46.70;;;;;;5111720;28;19923;-61
2023/12/18 00:24:02;;;;;;;;;;;19.80;46.60;;;;;;5099914;28;19943;-61
2023/12/18 00:26:29;;;;;;;;;;;19.80;46.60;;;;;;5105135;28;19923;-61
2023/12/18 00:28:56;;;;;;;;;;;19.80;46.70;;;;;;5107856;28;19992;-61
2023/12/18 00:31:22;;;;;;;;;;;19.80;46.70;;;;;;5099973;28;19930;-61
2023/12/18 00:33:49;;;;;;;;;;;19.80;46.70;;;;;;5097573;28;19923;-60
2023/12/18 00:36:16;;;;;;;;;;;19.80;46.70;;;;;;5102587;28;19927;-61
2023/12/18 00:38:42;;;;;;;;;;;19.80;46.70;;;;;;5106350;28;19973;-61
2023/12/18 00:41:10;;;;;;;;;;;19.80;46.70;;;;;;5107523;28;19924;-60
2023/12/18 00:43:37;;;;;;;;;;;19.80;46.70;;;;;;5090617;28;19926;-62
2023/12/18 00:46:05;;;;;;;;;;;19.80;46.70;;;;;;5101956;28;19924;-61
2023/12/18 00:48:32;;;;;;;;;;;19.80;46.70;;;;;;5101588;28;20238;-61
2023/12/18 00:50:58;;;;;;;;;;;19.80;46.70;;;;;;5101058;28;20423;-61
2023/12/18 00:53:25;;;;;;;;;;;19.80;46.70;;;;;;5107244;28;19938;-61
2023/12/18 00:55:52;;;;;;;;;;;19.80;46.70;;;;;;5102471;28;19932;-61
2023/12/18 00:58:20;;;;;;;;;;;19.80;46.70;;;;;;5107193;28;19930;-61
2023/12/18 01:00:47;;;;;;;;;;;19.80;46.70;;;;;;5104034;28;19923;-61
2023/12/18 01:03:13;;;;;;;;;;;19.80;46.70;;;;;;5105430;28;19932;-60
2023/12/18 01:05:40;;;;;;;;;;;19.80;46.70;;;;;;5113968;27;20293;-61
2023/12/18 01:08:08;;;;;;;;;;;19.70;46.60;;;;;;5106395;28;19931;-60
2023/12/18 01:10:35;;;;;;;;;;;19.70;46.60;;;;;;5102911;28;19945;-60
2023/12/18 01:13:01;;;;;;;;;;;19.80;46.70;;;;;;5102729;28;20159;-61
2023/12/18 01:15:29;;;;;;;;;;;19.80;46.70;;;;;;5099134;28;19988;-60
2023/12/18 01:17:56;;;;;;;;;;;19.80;46.70;;;;;;5100693;28;19954;-61
2023/12/18 01:20:23;;;;;;;;;;;19.80;46.70;;;;;;5103599;28;20197;-61
2023/12/18 01:22:50;;;;;;;;;;;19.80;46.70;;;;;;5101698;28;19924;-60
2023/12/18 01:25:17;;;;;;;;;;;19.80;46.70;;;;;;5114112;27;19938;-61
2023/12/18 01:27:43;;;;;;;;;;;19.70;46.60;;;;;;5101326;28;19988;-60
2023/12/18 01:30:11;;;;;;;;;;;19.80;46.70;;;;;;5113534;28;19924;-60
2023/12/18 01:32:39;;;;;;;;;;;19.70;46.60;;;;;;5114878;27;19934;-60
2023/12/18 01:35:06;;;;;;;;;;;19.80;46.70;;;;;;5113253;27;19923;-60
2023/12/18 01:37:32;;;;;;;;;;;19.80;46.70;;;;;;5102771;27;19939;-61
2023/12/18 01:39:59;;;;;;;;;;;19.80;46.70;;;;;;5101728;28;19972;-61
2023/12/18 01:42:26;;;;;;;;;;;19.80;46.70;;;;;;5102469;28;19945;-60
2023/12/18 01:44:53;;;;;;;;;;;19.80;47.30;;;;;;5100815;28;19988;-60
2023/12/18 01:47:19;;;;;;;;;;;19.70;46.60;;;;;;5109031;27;19930;-60
2023/12/18 01:49:49;;;;;;;;;;;19.80;46.70;;;;;;5098153;28;19923;-60
2023/12/18 01:52:15;;;;;;;;;;;19.80;46.70;;;;;;5102039;28;19931;-60
2023/12/18 01:54:42;;;;;;;;;;;19.70;46.60;;;;;;5113913;27;19934;-60
2023/12/18 01:57:10;;;;;;;;;;;19.80;46.70;;;;;;5114088;28;19976;-60
2023/12/18 01:59:37;;;;;;;;;;;19.80;46.70;;;;;;5114141;28;19924;-60
2023/12/18 02:02:04;;;;;;;;;;;19.80;46.70;;;;;;5105112;28;19946;-60
2023/12/18 02:04:30;;;;;;;;;;;19.80;46.70;;;;;;5094701;28;19927;-61
2023/12/18 02:06:59;;;;;;;;;;;19.70;46.60;;;;;;5105015;28;19955;-60
2023/12/18 02:09:25;;;;;;;;;;;19.80;46.70;;;;;;5102468;28;19970;-61
2023/12/18 02:11:52;;;;;;;;;;;19.70;46.60;;;;;;5111534;28;19985;-60
2023/12/18 02:14:19;;;;;;;;;;;19.80;46.70;;;;;;5112153;28;20384;-60
2023/12/18 02:16:46;;;;;;;;;;;19.80;46.70;;;;;;5101918;28;19923;-60
2023/12/18 02:19:23;;;;;;;;;;;19.70;46.60;;;;;;5102102;28;19934;-60
2023/12/18 02:21:50;;;;;;;;;;;19.80;46.70;;;;;;5102931;28;20014;-61
2023/12/18 02:24:18;;;;;;;;;;;19.70;46.60;;;;;;5102396;28;19946;-60
2023/12/18 02:26:44;;;;;;;;;;;19.70;46.60;;;;;;5101216;28;19955;-60
2023/12/18 02:29:11;;;;;;;;;;;19.80;46.70;;;;;;5106294;28;19924;-60
2023/12/18 02:31:38;;;;;;;;;;;19.80;46.70;;;;;;5105880;28;19928;-60
2023/12/18 02:34:05;;;;;;;;;;;19.80;46.70;;;;;;5100324;28;19924;-60
2023/12/18 02:36:31;;;;;;;;;;;19.70;46.60;;;;;;5099245;28;19950;-61
2023/12/18 02:38:58;;;;;;;;;;;19.80;46.70;;;;;;5101354;28;19924;-60
2023/12/18 02:41:26;;;;;;;;;;;19.80;46.70;;;;;;5103200;28;19932;-60
2023/12/18 02:43:53;;;;;;;;;;;19.80;46.70;;;;;;5106040;28;19928;-61
2023/12/18 02:46:20;;;;;;;;;;;19.80;46.70;;;;;;5109086;27;19934;-60
2023/12/18 02:48:46;;;;;;;;;;;19.80;46.70;;;;;;5112917;27;19947;-60
2023/12/18 02:51:13;;;;;;;;;;;19.70;46.60;;;;;;5112147;28;19973;-61
2023/12/18 02:53:40;;;;;;;;;;;19.80;46.70;;;;;;5100998;28;19930;-60
2023/12/18 02:56:07;;;;;;;;;;;19.70;46.60;;;;;;5108707;28;19927;-60
2023/12/18 02:58:35;;;;;;;;;;;19.70;46.60;;;;;;5097563;28;19932;-61
2023/12/18 03:01:02;;;;;;;;;;;19.80;46.70;;;;;;5104240;28;19924;-61
2023/12/18 03:03:29;;;;;;;;;;;19.80;46.70;;;;;;5100666;28;19935;-60
2023/12/18 03:05:55;;;;;;;;;;;19.80;46.70;;;;;;5103200;28;20327;-61
2023/12/18 03:08:22;;;;;;;;;;;19.80;46.70;;;;;;5111765;28;19924;-61
2023/12/18 03:10:49;;;;;;;;;;;19.80;46.70;;;;;;5099207;28;19927;-60
2023/12/18 03:13:15;;;;;;;;;;;19.80;46.70;;;;;;5097591;28;19928;-60
2023/12/18 03:15:44;;;;;;;;;;;19.80;46.70;;;;;;5105142;27;19931;-60
2023/12/18 03:18:11;;;;;;;;;;;19.80;47.30;;;;;;5101490;28;19931;-61
2023/12/18 03:20:37;;;;;;;;;;;19.80;46.70;;;;;;5100995;28;19928;-60
2023/12/18 03:23:04;;;;;;;;;;;19.80;46.70;;;;;;5111686;27;19927;-60
2023/12/18 03:25:31;;;;;;;;;;;19.70;46.60;;;;;;5110933;27;19973;-60
2023/12/18 03:27:58;;;;;;;;;;;19.80;46.70;;;;;;5100099;28;19969;-61
2023/12/18 03:30:24;;;;;;;;;;;19.70;46.60;;;;;;5100963;28;19932;-62
2023/12/18 03:32:53;;;;;;;;;;;19.80;46.70;;;;;;5099401;28;19923;-61
2023/12/18 03:35:19;;;;;;;;;;;19.70;46.60;;;;;;5096509;28;19928;-61
2023/12/18 03:37:46;;;;;;;;;;;19.80;46.70;;;;;;5105565;28;19969;-61
2023/12/18 03:40:13;;;;;;;;;;;19.70;46.60;;;;;;5104505;28;20032;-60
2023/12/18 03:42:41;;;;;;;;;;;19.80;46.70;;;;;;5106733;28;19985;-61
2023/12/18 03:45:08;;;;;;;;;;;19.70;46.60;;;;;;5106397;27;19923;-60
2023/12/18 03:47:35;;;;;;;;;;;19.80;46.70;;;;;;5099971;28;19932;-61
2023/12/18 03:50:03;;;;;;;;;;;19.80;46.70;;;;;;5092815;28;19927;-60
2023/12/18 03:52:30;;;;;;;;;;;19.80;46.70;;;;;;5098696;28;19928;-60
2023/12/18 03:54:57;;;;;;;;;;;19.80;46.70;;;;;;5101440;28;20056;-60
2023/12/18 03:57:24;;;;;;;;;;;19.70;46.60;;;;;;5101251;28;19924;-60
2023/12/18 03:59:50;;;;;;;;;;;19.70;46.60;;;;;;5102020;28;19925;-61
2023/12/18 04:02:17;;;;;;;;;;;19.70;46.60;;;;;;5110231;28;19924;-61
2023/12/18 04:04:44;;;;;;;;;;;19.80;46.70;;;;;;5111974;28;19943;-60
2023/12/18 04:07:12;;;;;;;;;;;19.80;46.70;;;;;;5096347;28;20018;-60
2023/12/18 04:09:39;;;;;;;;;;;19.70;46.60;;;;;;5108602;28;19924;-61
2023/12/18 04:12:06;;;;;;;;;;;19.80;46.70;;;;;;5098667;28;19923;-61
2023/12/18 04:14:33;;;;;;;;;;;19.80;46.70;;;;;;5108020;28;19924;-61
2023/12/18 04:17:00;;;;;;;;;;;19.80;46.70;;;;;;5118120;28;19924;-61
2023/12/18 04:19:27;;;;;;;;;;;19.80;46.70;;;;;;5111208;28;19920;-60
2023/12/18 04:21:53;;;;;;;;;;;19.70;46.60;;;;;;5089044;28;20011;-60
2023/12/18 04:24:21;;;;;;;;;;;19.80;46.70;;;;;;5119016;27;20583;-60
2023/12/18 04:26:48;;;;;;;;;;;19.70;46.60;;;;;;5100635;28;19924;-61
2023/12/18 04:29:15;;;;;;;;;;;19.70;46.60;;;;;;5117851;28;19928;-61
2023/12/18 04:31:42;;;;;;;;;;;19.70;46.60;;;;;;5107244;28;19928;-60
2023/12/18 04:34:08;;;;;;;;;;;19.70;46.60;;;;;;5098235;28;19938;-60
2023/12/18 04:36:37;;;;;;;;;;;19.70;46.60;;;;;;5094385;28;19927;-60
2023/12/18 04:39:04;;;;;;;;;;;19.70;46.60;;;;;;5109219;28;19932;-61
2023/12/18 04:41:32;;;;;;;;;;;19.80;46.70;;;;;;5104042;28;19930;-61
2023/12/18 04:43:59;;;;;;;;;;;19.70;46.60;;;;;;5105290;28;19968;-60
2023/12/18 04:46:26;;;;;;;;;;;19.70;46.60;;;;;;5103676;28;19928;-61
2023/12/18 04:48:53;;;;;;;;;;;19.80;46.70;;;;;;5111410;28;19930;-61
2023/12/18 04:51:19;;;;;;;;;;;19.80;46.70;;;;;;5116895;28;19931;-60
2023/12/18 04:53:46;;;;;;;;;;;19.70;46.60;;;;;;5117259;28;19928;-60
2023/12/18 04:56:13;;;;;;;;;;;19.70;46.60;;;;;;5093948;28;19928;-61
2023/12/18 04:58:43;;;;;;;;;;;19.70;46.60;;;;;;5093309;28;22657;-61
2023/12/18 05:01:10;;;;;;;;;;;19.70;46.60;;;;;;5115019;28;19927;-61
2023/12/18 05:03:37;;;;;;;;;;;19.80;46.70;;;;;;5111430;28;19969;-60
2023/12/18 05:06:03;;;;;;;;;;;19.70;46.60;;;;;;5106995;28;20069;-60
2023/12/18 05:08:30;;;;;;;;;;;19.70;46.60;;;;;;5116715;27;19924;-61
2023/12/18 05:10:57;;;;;;;;;;;19.70;46.60;;;;;;5104532;28;19927;-60
2023/12/18 05:13:24;;;;;;;;;;;19.70;46.60;;;;;;5117447;28;20152;-61
2023/12/18 05:15:52;;;;;;;;;;;19.70;46.60;;;;;;5115024;28;19988;-61
2023/12/18 05:18:19;;;;;;;;;;;19.80;46.70;;;;;;5116263;27;19931;-60
2023/12/18 05:20:45;;;;;;;;;;;19.70;46.60;;;;;;5110022;28;19924;-61
2023/12/18 05:23:12;;;;;;;;;;;19.70;46.60;;;;;;5110417;27;19923;-61
2023/12/18 05:25:39;;;;;;;;;;;19.70;46.60;;;;;;5103815;27;19992;-60
2023/12/18 05:28:06;;;;;;;;;;;19.70;46.60;;;;;;5101563;28;19935;-60
2023/12/18 05:30:34;;;;;;;;;;;19.70;46.60;;;;;;5098990;28;19927;-61
2023/12/18 05:33:02;;;;;;;;;;;19.70;46.60;;;;;;5106398;27;19954;-60
2023/12/18 05:35:29;;;;;;;;;;;19.70;46.60;;;;;;5115131;27;20048;-60
2023/12/18 05:37:56;;;;;;;;;;;19.70;46.60;;;;;;5117645;27;19958;-60
2023/12/18 05:40:23;;;;;;;;;;;19.70;46.60;;;;;;5099505;28;19928;-60
2023/12/18 05:42:50;;;;;;;;;;;19.80;46.70;;;;;;5099983;28;19924;-60
2023/12/18 05:45:17;;;;;;;;;;;19.70;46.60;;;;;;5113315;27;19993;-60
2023/12/18 05:47:44;;;;;;;;;;;19.70;46.60;;;;;;5114608;28;19927;-61
2023/12/18 05:50:12;;;;;;;;;;;19.70;46.60;;;;;;5109909;27;19923;-61
2023/12/18 05:52:39;;;;;;;;;;;19.70;46.60;;;;;;5110640;28;19927;-61
2023/12/18 05:55:06;;;;;;;;;;;19.70;46.60;;;;;;5113298;28;19959;-60
2023/12/18 05:57:33;;;;;;;;;;;19.70;46.60;;;;;;5105738;28;20293;-60
2023/12/18 06:00:00;;;;;;;;;;;19.70;46.60;;;;;;5107933;28;19928;-60
2023/12/18 06:02:26;;;;;;;;;;;19.70;46.60;;;;;;5092195;28;19964;-61
2023/12/18 06:04:53;;;;;;;;;;;19.80;46.70;;;;;;5108103;28;19931;-61
2023/12/18 06:07:21;;;;;;;;;;;19.70;46.60;;;;;;5097976;28;19928;-61
2023/12/18 06:09:48;;;;;;;;;;;19.70;46.60;;;;;;5106814;28;19928;-61
2023/12/18 06:12:15;;;;;;;;;;;19.70;46.60;;;;;;5104207;28;19924;-60
2023/12/18 06:14:41;;;;;;;;;;;19.70;46.60;;;;;;5116477;27;19936;-60
2023/12/18 06:17:09;;;;;;;;;;;19.70;46.60;;;;;;5109374;28;19927;-60
2023/12/18 06:19:35;;;;;;;;;;;19.70;46.60;;;;;;5096387;28;19928;-61
2023/12/18 06:22:02;;;;;;;;;;;19.70;46.60;;;;;;5104159;28;19985;-61
2023/12/18 06:24:30;;;;;;;;;;;19.70;46.60;;;;;;5101011;28;20361;-60
2023/12/18 06:26:57;;;;;;;;;;;19.70;46.60;;;;;;5104942;28;19932;-60
2023/12/18 06:29:23;;;;;;;;;;;19.70;46.60;;;;;;5112425;27;19972;-61
2023/12/18 06:31:50;;;;;;;;;;;19.70;46.60;;;;;;5110850;28;19928;-61
2023/12/18 06:34:17;;;;;;;;;;;19.70;46.60;;;;;;5110068;27;19989;-60
2023/12/18 06:36:44;;;;;;;;;;;19.70;46.60;;;;;;5112632;27;19977;-60
2023/12/18 06:39:11;;;;;;;;;;;19.70;46.60;;;;;;5100485;28;19928;-61
2023/12/18 06:41:39;;;;;;;;;;;19.70;46.60;;;;;;5111403;28;19932;-60
2023/12/18 06:44:06;;;;;;;;;;;19.70;46.60;;;;;;5113333;28;19935;-60
2023/12/18 06:46:34;;;;;;;;;;;19.70;46.60;;;;;;5099483;28;20346;-59
2023/12/18 06:49:00;;;;;;;;;;;19.70;46.60;;;;;;5103415;28;19924;-60
2023/12/18 06:51:27;;;;;;;;;;;19.70;46.60;;;;;;5113620;28;19928;-60
2023/12/18 06:53:54;;;;;;;;;;;19.70;46.60;;;;;;5098192;28;19923;-60
2023/12/18 06:56:21;;;;;;;;;;;19.70;46.60;;;;;;5102551;28;19928;-60
2023/12/18 06:58:49;;;;;;;;;;;19.70;46.60;;;;;;5102360;28;19928;-60
2023/12/18 07:01:16;;;;;;;;;;;19.70;46.60;;;;;;5112469;28;19928;-60
2023/12/18 07:03:43;;;;;;;;;;;19.70;46.60;;;;;;5088803;28;19924;-60
2023/12/18 07:06:09;;;;;;;;;;;19.70;46.60;;;;;;5100125;28;19935;-61
2023/12/18 07:08:37;;;;;;;;;;;19.70;46.60;;;;;;5098762;28;21263;-62
2023/12/18 07:11:04;;;;;;;;;;;19.70;46.60;;;;;;5099802;28;19935;-60
2023/12/18 07:13:31;;;;;;;;;;;19.70;46.60;;;;;;5091571;28;19953;-60
2023/12/18 07:15:59;;;;;;;;;;;19.70;46.60;;;;;;5087191;28;19935;-59
2023/12/18 07:18:25;;;;;;;;;;;19.70;46.70;;;;;;5097872;27;19985;-58
2023/12/18 07:20:52;;;;;;;;;;;19.70;46.50;;;;;;5121605;27;19923;-60
2023/12/18 07:23:19;;;;;;;;;;;19.70;46.20;;;;;;5098369;28;19935;-60
2023/12/18 07:25:46;;;;;;;;;;;19.70;45.50;;;;;;5103106;27;19949;-58
2023/12/18 07:28:12;;;;;;;;;;;19.70;45.10;;;;;;5100315;27;19935;-60
2023/12/18 07:30:39;;;;;;;;;;;19.60;44.80;;;;;;5098341;27;19945;-55
2023/12/18 07:33:07;;;;;;;;;;;19.60;44.80;;;;;;5109481;27;19930;-61
2023/12/18 07:35:34;;;;;;;;;;;19.60;44.80;;;;;;5113955;27;20334;-55
2023/12/18 07:38:01;;;;;;;;;;;19.60;44.80;;;;;;5100788;28;19928;-52
2023/12/18 07:40:28;;;;;;;;;;;19.50;44.70;;;;;;5101416;28;19932;-59
2023/12/18 07:42:54;;;;;;;;;;;19.50;44.80;;;;;;5100190;27;19927;-59
2023/12/18 07:45:21;;;;;;;;;;;19.50;45.00;;;;;;5108616;27;19927;-60
2023/12/18 07:47:48;;;;;;;;;;;19.50;45.10;;;;;;5097496;28;19927;-60
2023/12/18 07:50:16;;;;;;;;;;;19.50;45.10;;;;;;5108824;27;19974;-59
2023/12/18 07:52:44;;;;;;;;;;;19.50;45.20;;;;;;5095641;28;19923;-60
2023/12/18 07:55:11;;;;;;;;;;;19.50;45.30;;;;;;5086761;28;19932;-60
2023/12/18 07:57:39;;;;;;;;;;;19.50;45.50;;;;;;5099626;28;19980;-59
2023/12/18 08:00:08;;;;;;;;;;;19.50;45.50;;;;;;5074329;28;19928;-60
2023/12/18 08:02:35;;;;;;;;;;;19.60;45.60;;;;;;5076370;28;19928;-61
2023/12/18 08:05:02;;;;;;;;;;;19.60;45.60;;;;;;5081800;28;21149;-60
2023/12/18 08:07:30;;;;;;;;;;;19.60;45.70;;;;;;5104942;28;19928;-61
2023/12/18 08:09:56;;;;;;;;;;;19.60;45.70;;;;;;5078056;28;20028;-61
2023/12/18 08:12:23;;;;;;;;;;;19.60;45.80;;;;;;5084640;28;19927;-60
2023/12/18 08:14:50;;;;;;;;;;;19.60;45.80;;;;;;5077327;28;19930;-61
2023/12/18 08:17:17;;;;;;;;;;;19.60;45.80;;;;;;5107581;28;19932;-61
2023/12/18 08:19:46;;;;;;;;;;;19.70;45.90;;;;;;5086136;28;19927;-61
2023/12/18 08:22:12;;;;;;;;;;;19.70;45.90;;;;;;5095630;28;19932;-62
2023/12/18 08:24:40;;;;;;;;;;;19.70;45.90;;;;;;5084540;28;19927;-62
2023/12/18 08:27:07;;;;;;;;;;;19.70;46.00;;;;;;5086390;28;20008;-60
2023/12/18 08:29:34;;;;;;;;;;;19.70;45.90;;;;;;5107744;28;19934;-61
2023/12/18 08:32:01;;;;;;;;;;;19.70;46.00;;;;;;5091493;28;19924;-61
2023/12/18 08:34:29;;;;;;;;;;;19.70;46.00;;;;;;5095848;28;19969;-62
2023/12/18 08:36:55;;;;;;;;;;;19.70;46.00;;;;;;5102429;28;19924;-61
2023/12/18 08:39:22;;;;;;;;;;;19.70;46.00;;;;;;5099052;28;20448;-62
2023/12/18 08:41:50;;;;;;;;;;;19.70;46.00;;;;;;5094658;28;19931;-60
2023/12/18 08:44:17;;;;;;;;;;;19.80;46.10;;;;;;5092320;28;19982;-60
2023/12/18 08:46:43;;;;;;;;;;;19.80;46.10;;;;;;5111534;28;19968;-61
2023/12/18 08:49:10;;;;;;;;;;;19.80;46.10;;;;;;5111055;28;19924;-60
2023/12/18 08:51:37;;;;;;;;;;;19.80;46.10;;;;;;5100296;28;19981;-62
2023/12/18 08:54:05;;;;;;;;;;;19.80;46.10;;;;;;5092983;28;20000;-60
2023/12/18 08:56:31;;;;;;;;;;;19.80;46.10;;;;;;5097729;28;19924;-61
2023/12/18 08:59:00;;;;;;;;;;;19.80;46.10;;;;;;5117611;27;19928;-62
2023/12/18 09:01:26;;;;;;;;;;;19.80;46.10;;;;;;5109101;28;19961;-62
2023/12/18 09:03:53;;;;;;;;;;;19.80;46.10;;;;;;5114593;28;19935;-61
2023/12/18 09:06:20;;;;;;;;;;;19.80;46.10;;;;;;5110465;28;20442;-61
2023/12/18 09:08:47;;;;;;;;;;;19.80;46.20;;;;;;5098587;27;19924;-61
2023/12/18 09:11:14;;;;;;;;;;;19.90;46.30;;;;;;5113633;27;19927;-61
2023/12/18 09:13:40;;;;;;;;;;;19.90;46.30;;;;;;5098729;28;19923;-60
2023/12/18 09:16:08;;;;;;;;;;;19.90;46.30;;;;;;5097098;28;19927;-61
2023/12/18 09:18:35;;;;;;;;;;;19.80;46.20;;;;;;5100837;28;19924;-62
2023/12/18 09:21:02;;;;;;;;;;;19.90;46.30;;;;;;5094528;28;19927;-61
2023/12/18 09:23:29;;;;;;;;;;;19.90;46.30;;;;;;5111078;28;19924;-60
2023/12/18 09:25:55;;;;;;;;;;;19.90;46.30;;;;;;5089922;28;20002;-60
2023/12/18 09:28:22;;;;;;;;;;;19.90;46.40;;;;;;5112209;28;19932;-61
2023/12/18 09:30:49;;;;;;;;;;;19.90;46.30;;;;;;5096311;28;19919;-61
2023/12/18 09:33:17;;;;;;;;;;;19.90;46.30;;;;;;5100684;28;19984;-62
2023/12/18 09:35:44;;;;;;;;;;;19.90;46.30;;;;;;5093967;28;19993;-60
2023/12/18 09:38:11;;;;;;;;;;;19.90;46.30;;;;;;5091290;28;19928;-61
2023/12/18 09:40:37;;;;;;;;;;;19.90;46.30;;;;;;5097886;28;19923;-62
2023/12/18 09:43:04;;;;;;;;;;;19.90;46.30;;;;;;5103275;28;19924;-62
2023/12/18 09:45:31;;;;;;;;;;;19.90;46.30;;;;;;5093886;28;20047;-62
2023/12/18 09:47:58;;;;;;;;;;;19.90;46.40;;;;;;5104441;28;19924;-60
2023/12/18 09:50:26;;;;;;;;;;;19.90;46.30;;;;;;5102252;28;19927;-61
2023/12/18 09:52:54;;;;;;;;;;;20.00;46.40;;;;;;5095923;28;19930;-63
2023/12/18 09:55:21;;;;;;;;;;;19.90;46.40;;;;;;5110570;27;19928;-61
2023/12/18 09:57:49;;;;;;;;;;;20.00;46.40;;;;;;5100117;28;19931;-60
2023/12/18 10:00:16;;;;;;;;;;;19.90;46.40;;;;;;5097623;28;19977;-60
2023/12/18 10:02:43;;;;;;;;;;;19.90;46.40;;;;;;5095196;28;19928;-60
2023/12/18 10:05:10;;;;;;;;;;;20.00;46.40;;;;;;5097498;28;19928;-61
2023/12/18 10:07:39;;;;;;;;;;;20.00;46.40;;;;;;5109314;28;19945;-61
2023/12/18 10:10:06;;;;;;;;;;;20.00;46.40;;;;;;5094867;28;19928;-61
2023/12/18 10:12:33;;;;;;;;;;;20.00;46.40;;;;;;5113018;28;19957;-61
2023/12/18 10:15:00;;;;;;;;;;;20.00;46.40;;;;;;5095108;28;19924;-63
2023/12/18 10:17:27;;;;;;;;;;;20.00;46.50;;;;;;5099473;28;20757;-63
2023/12/18 10:19:54;;;;;;;;;;;20.00;46.40;;;;;;5111215;28;19931;-63
2023/12/18 10:22:21;;;;;;;;;;;20.00;46.40;;;;;;5112251;27;19927;-63
2023/12/18 10:24:51;;;;;;;;;;;20.00;46.40;;;;;;5098810;28;19951;-64
2023/12/18 10:27:19;;;;;;;;;;;20.00;46.40;;;;;;5097310;28;19924;-66
2023/12/18 10:29:46;;;;;;;;;;;20.00;46.40;;;;;;5100499;28;19923;-63
2023/12/18 10:32:13;;;;;;;;;;;20.00;46.50;;;;;;5094672;28;19932;-61
2023/12/18 10:34:40;;;;;;;;;;;20.00;46.40;;;;;;5097146;27;19920;-61
2023/12/18 10:37:06;;;;;;;;;;;20.00;46.40;;;;;;5088998;28;19923;-60
2023/12/18 10:39:33;;;;;;;;;;;20.00;46.40;;;;;;5096220;28;19924;-60
2023/12/18 10:42:05;;;;;;;;;;;20.00;46.40;;;;;;5095082;28;20011;-61
2023/12/18 10:44:32;;;;;;;;;;;20.00;46.40;;;;;;5105816;27;19932;-61
2023/12/18 10:46:58;;;;;;;;;;;20.00;46.50;;;;;;5105156;28;19931;-60
2023/12/18 10:49:27;;;;;;;;;;;20.00;46.40;;;;;;5092125;28;19928;-62
2023/12/18 10:51:54;;;;;;;;;;;20.10;46.50;;;;;;5090481;28;20377;-61
2023/12/18 10:54:21;;;;;;;;;;;20.10;46.50;;;;;;5093511;28;19950;-62
2023/12/18 10:56:47;;;;;;;;;;;20.10;46.50;;;;;;5096156;27;19923;-60
2023/12/18 10:59:16;;;;;;;;;;;20.10;46.50;;;;;;5086797;28;19928;-60
2023/12/18 11:01:42;;;;;;;;;;;20.10;46.50;;;;;;5091979;28;19927;-60
2023/12/18 11:04:09;;;;;;;;;;;20.10;46.50;;;;;;5111352;28;19923;-61
2023/12/18 11:06:36;;;;;;;;;;;20.00;46.40;;;;;;5095032;28;19923;-61
2023/12/18 11:09:03;;;;;;;;;;;20.00;46.40;;;;;;5091974;28;19984;-61
2023/12/18 11:11:30;;;;;;;;;;;20.10;46.50;;;;;;5096540;28;19931;-60
2023/12/18 11:14:00;;;;;;;;;;;20.10;46.50;;;;;;5089964;28;19924;-60
2023/12/18 11:16:31;;;;;;;;;;;20.10;46.50;;;;;;5089225;28;19924;-62
2023/12/18 11:18:59;;;;;;;;;;;20.10;46.50;;;;;;5089765;28;19955;-62
2023/12/18 11:21:26;;;;;;;;;;;20.10;46.50;;;;;;5107692;28;19924;-61
2023/12/18 11:23:53;;;;;;;;;;;20.10;46.60;;;;;;5092613;27;19949;-61
2023/12/18 11:26:20;;;;;;;;;;;20.10;46.50;;;;;;5089575;28;20336;-59
2023/12/18 11:28:48;;;;;;;;;;;20.10;46.50;;;;;;5111904;28;19976;-59
2023/12/18 11:31:20;;;;;;;;;;;20.10;46.50;;;;;;5111955;28;19971;-61
2023/12/18 11:34:04;;;;;;;;;;;20.10;46.50;;;;;;5094254;28;20018;-61
2023/12/18 11:36:31;;;;;;;;;;;20.10;46.50;;;;;;5111818;28;19955;-59
2023/12/18 11:38:58;;;;;;;;;;;20.10;46.50;;;;;;5086434;28;19924;-58
2023/12/18 11:41:37;;;;;;;;;;;20.10;46.50;;;;;;5112195;28;20009;-60
2023/12/18 11:44:07;;;;;;;;;;;20.10;46.50;;;;;;5110030;28;19928;-61
2023/12/18 11:46:33;;;;;;;;;;;20.10;46.50;;;;;;5090659;28;19927;-61
2023/12/18 11:49:00;;;;;;;;;;;20.10;46.50;;;;;;5110442;28;19935;-59
2023/12/18 11:51:29;;;;;;;;;;;20.10;46.50;;;;;;5106446;27;19923;-61
2023/12/18 11:53:58;;;;;;;;;;;20.10;46.50;;;;;;5111727;28;19972;-61
2023/12/18 11:56:25;;;;;;;;;;;20.10;46.50;;;;;;5089447;28;19946;-60
2023/12/18 11:58:51;;;;;;;;;;;20.10;46.50;;;;;;5090839;28;19923;-61
2023/12/18 12:01:18;;;;;;;;;;;20.10;46.50;;;;;;5114976;27;19968;-60
2023/12/18 12:03:45;;;;;;;;;;;20.10;46.50;;;;;;5098916;28;19981;-61
2023/12/18 12:06:11;;;;;;;;;;;20.10;46.50;;;;;;5096443;28;19928;-60
2023/12/18 12:08:43;;;;;;;;;;;20.10;46.50;;;;;;5099565;28;19924;-59
2023/12/18 12:11:10;;;;;;;;;;;20.10;46.50;;;;;;5094962;28;19963;-59
2023/12/18 12:13:37;;;;;;;;;;;20.10;46.50;;;;;;5112194;28;20332;-61
2023/12/18 12:16:04;;;;;;;;;;;20.10;46.50;;;;;;5088507;28;19928;-61
2023/12/18 12:18:31;;;;;;;;;;;20.10;46.50;;;;;;5104211;28;19976;-60
2023/12/18 12:20:59;;;;;;;;;;;20.10;46.50;;;;;;5093411;28;19924;-60
2023/12/18 12:23:25;;;;;;;;;;;20.20;46.60;;;;;;5112061;28;19954;-61
2023/12/18 12:25:54;;;;;;;;;;;20.20;46.60;;;;;;5107940;28;19924;-60
2023/12/18 12:28:21;;;;;;;;;;;20.20;46.60;;;;;;5108721;28;19924;-60
2023/12/18 12:30:48;;;;;;;;;;;20.10;46.50;;;;;;5097205;28;20026;-60
2023/12/18 12:33:16;;;;;;;;;;;20.20;46.60;;;;;;5091643;28;19989;-61
2023/12/18 12:35:42;;;;;;;;;;;20.20;46.60;;;;;;5098598;27;20006;-60
2023/12/18 12:38:09;;;;;;;;;;;20.10;46.50;;;;;;5101401;28;19924;-60
2023/12/18 12:40:36;;;;;;;;;;;20.20;46.60;;;;;;5087794;28;19963;-60
2023/12/18 12:43:05;;;;;;;;;;;20.10;46.50;;;;;;5115353;28;19931;-60
2023/12/18 12:45:31;;;;;;;;;;;20.20;46.60;;;;;;5099815;28;19984;-60
2023/12/18 12:47:58;;;;;;;;;;;20.20;46.60;;;;;;5098818;28;19946;-60
2023/12/18 12:50:25;;;;;;;;;;;20.10;46.50;;;;;;5104045;28;19932;-60
2023/12/18 12:52:52;;;;;;;;;;;20.10;46.50;;;;;;5099330;28;20172;-60
2023/12/18 12:55:18;;;;;;;;;;;20.20;46.60;;;;;;5114464;27;19931;-58
2023/12/18 12:57:45;;;;;;;;;;;20.10;46.50;;;;;;5101966;28;19928;-56
2023/12/18 13:00:14;;;;;;;;;;;20.20;46.60;;;;;;5094945;28;19931;-57
2023/12/18 13:02:41;;;;;;;;;;;20.10;46.50;;;;;;5089717;28;19923;-60
2023/12/18 13:05:08;;;;;;;;;;;20.10;46.30;;;;;;5115285;27;19923;-58
2023/12/18 13:07:35;;;;;;;;;;;20.10;46.20;;;;;;5095722;28;19927;-57
2023/12/18 13:10:03;;;;;;;;;;;20.10;46.20;;;;;;5100540;28;19924;-58
2023/12/18 13:12:30;;;;;;;;;;;20.10;46.10;;;;;;5096676;28;19931;-54
2023/12/18 13:14:56;;;;;;;;;;;20.10;46.10;;;;;;5098752;27;20009;-58
2023/12/18 13:17:25;;;;;;;;;;;20.10;46.10;;;;;;5111315;28;19931;-60
2023/12/18 13:19:52;;;;;;;;;;;20.10;46.10;;;;;;5086450;28;19931;-60
2023/12/18 13:22:19;;;;;;;;;;;20.10;46.10;;;;;;5115759;27;19924;-59
2023/12/18 13:24:46;;;;;;;;;;;20.10;46.00;;;;;;5096203;28;19976;-58
2023/12/18 13:27:13;;;;;;;;;;;20.00;45.90;;;;;;5096482;28;19924;-60
2023/12/18 13:29:42;;;;;;;;;;;20.00;45.90;;;;;;5100084;28;19924;-58
2023/12/18 13:32:08;;;;;;;;;;;20.00;45.90;;;;;;5091069;28;19967;-59
2023/12/18 13:34:37;;;;;;;;;;;20.00;45.80;;;;;;5106162;28;20263;-58
2023/12/18 13:37:06;;;;;;;;;;;20.00;45.80;;;;;;5094179;28;19931;-59
2023/12/18 13:39:33;;;;;;;;;;;20.00;45.80;;;;;;5106545;27;19928;-60
2023/12/18 13:42:00;;;;;;;;;;;20.00;45.80;;;;;;5097185;28;19932;-56
2023/12/18 13:44:28;;;;;;;;;;;19.90;45.70;;;;;;5105426;28;19979;-60
2023/12/18 13:46:55;;;;;;;;;;;20.00;45.80;;;;;;5110233;28;20034;-56
2023/12/18 13:49:22;;;;;;;;;;;20.00;45.80;;;;;;5111501;28;19965;-58
2023/12/18 13:51:50;;;;;;;;;;;20.00;45.80;;;;;;5087371;28;20095;-59
2023/12/18 13:54:17;;;;;;;;;;;20.00;45.80;;;;;;5095980;27;19939;-61
2023/12/18 13:56:44;;;;;;;;;;;19.90;45.70;;;;;;5094478;28;19927;-58
2023/12/18 13:59:11;;;;;;;;;;;19.90;45.60;;;;;;5091409;28;20010;-58
2023/12/18 14:01:39;;;;;;;;;;;20.00;45.80;;;;;;5101262;28;19934;-57
2023/12/18 14:04:06;;;;;;;;;;;19.90;45.60;;;;;;5094895;28;19927;-59
2023/12/18 14:06:33;;;;;;;;;;;19.90;45.60;;;;;;5112416;28;19927;-60
2023/12/18 14:09:01;;;;;;;;;;;19.90;45.70;;;;;;5095638;28;19973;-57
2023/12/18 14:11:28;;;;;;;;;;;19.90;45.60;;;;;;5096600;28;19946;-58
2023/12/18 14:13:54;;;;;;;;;;;19.90;45.60;;;;;;5100335;28;19924;-56
2023/12/18 14:16:21;;;;;;;;;;;19.90;45.60;;;;;;5111456;28;19993;-56